createdAt,value
2018-09-28T00:02:23.627Z,7.50
2018-09-28T00:04:52.141Z,7.50
2018-09-28T00:07:20.743Z,7.40
2018-09-28T00:09:49.231Z,7.40
2018-09-28T00:12:17.806Z,7.40
2018-09-28T00:14:46.335Z,7.20
2018-09-28T00:17:14.872Z,7.30
2018-09-28T00:19:43.454Z,7.40
2018-09-28T00:22:12.077Z,7.30
2018-09-28T00:24:40.655Z,7.30
2018-09-28T00:27:09.197Z,7.30
2018-09-28T00:29:37.732Z,7.20
2018-09-28T00:32:06.766Z,7.10
2018-09-28T00:34:35.281Z,6.80
2018-09-28T00:37:03.862Z,6.80
2018-09-28T00:39:32.368Z,6.80
2018-09-28T00:42:01.015Z,6.80
2018-09-28T00:44:29.517Z,7.00
2018-09-28T00:46:58.052Z,6.90
2018-09-28T00:49:26.614Z,6.70
2018-09-28T00:51:55.159Z,6.70
2018-09-28T00:54:23.706Z,6.80
2018-09-28T00:56:52.217Z,7.00
2018-09-28T00:59:20.709Z,7.00
2018-09-28T01:01:49.233Z,7.20
2018-09-28T01:04:17.749Z,6.90
2018-09-28T01:06:46.252Z,6.60
2018-09-28T01:09:15.674Z,6.80
2018-09-28T01:11:44.632Z,6.80
2018-09-28T01:14:13.138Z,6.70
2018-09-28T01:16:41.668Z,6.80
2018-09-28T01:19:10.215Z,6.90
2018-09-28T01:21:38.767Z,6.80
2018-09-28T01:24:07.312Z,6.70
2018-09-28T01:26:35.937Z,6.70
2018-09-28T01:29:04.683Z,6.80
2018-09-28T01:31:33.190Z,6.70
2018-09-28T01:34:01.773Z,6.60
2018-09-28T01:36:30.313Z,6.60
2018-09-28T01:38:58.859Z,6.50
2018-09-28T01:41:27.393Z,6.60
2018-09-28T01:43:55.934Z,6.30
2018-09-28T01:46:24.434Z,6.30
2018-09-28T01:48:59.657Z,6.50
2018-09-28T01:51:28.144Z,6.60
2018-09-28T01:53:56.687Z,6.50
2018-09-28T01:56:25.218Z,6.30
2018-09-28T01:58:53.743Z,6.30
2018-09-28T02:01:22.393Z,6.40
2018-09-28T02:03:50.992Z,6.20
2018-09-28T02:06:19.614Z,6.20
2018-09-28T02:08:48.256Z,6.30
2018-09-28T02:11:16.801Z,6.30
2018-09-28T02:13:45.385Z,6.40
2018-09-28T02:16:14.046Z,6.10
2018-09-28T02:18:42.655Z,6.10
2018-09-28T02:21:11.246Z,6.20
2018-09-28T02:23:39.870Z,6.00
2018-09-28T02:26:08.631Z,6.00
2018-09-28T02:28:37.474Z,6.10
2018-09-28T02:31:06.234Z,6.20
2018-09-28T02:33:34.835Z,6.30
2018-09-28T02:36:03.446Z,6.30
2018-09-28T02:38:32.023Z,6.10
2018-09-28T02:41:00.577Z,6.20
2018-09-28T02:43:29.258Z,6.20
2018-09-28T02:45:57.818Z,6.20
2018-09-28T02:48:26.354Z,5.80
2018-09-28T02:50:54.919Z,5.80
2018-09-28T02:53:23.594Z,5.70
2018-09-28T02:55:52.185Z,5.70
2018-09-28T02:58:20.723Z,5.70
2018-09-28T03:00:49.424Z,5.80
2018-09-28T03:03:17.970Z,5.90
2018-09-28T03:05:46.511Z,5.90
2018-09-28T03:08:15.074Z,6.10
2018-09-28T03:10:43.618Z,6.00
2018-09-28T03:13:12.193Z,6.10
2018-09-28T03:15:40.764Z,6.00
2018-09-28T03:18:09.330Z,5.90
2018-09-28T03:20:37.951Z,5.90
2018-09-28T03:23:06.474Z,5.80
2018-09-28T03:25:35.169Z,5.70
2018-09-28T03:28:03.723Z,5.60
2018-09-28T03:30:32.280Z,5.70
2018-09-28T03:33:00.811Z,5.80
2018-09-28T03:35:29.539Z,5.70
2018-09-28T03:37:58.052Z,5.70
2018-09-28T03:40:26.643Z,5.70
2018-09-28T03:42:55.147Z,5.60
2018-09-28T03:45:23.691Z,5.60
2018-09-28T03:47:52.310Z,5.40
2018-09-28T03:50:20.916Z,5.40
2018-09-28T03:52:49.534Z,5.50
2018-09-28T03:55:18.099Z,5.50
2018-09-28T03:57:46.718Z,5.50
2018-09-28T04:00:15.255Z,5.50
2018-09-28T04:02:43.812Z,5.20
2018-09-28T04:05:12.480Z,5.20
2018-09-28T04:07:41.104Z,5.00
2018-09-28T04:10:09.784Z,5.20
2018-09-28T04:12:38.755Z,5.20
2018-09-28T04:15:07.677Z,5.20
2018-09-28T04:17:36.434Z,5.20
2018-09-28T04:20:05.191Z,5.30
2018-09-28T04:22:33.762Z,5.40
2018-09-28T04:25:02.446Z,5.40
2018-09-28T04:27:31.084Z,5.40
2018-09-28T04:29:59.639Z,5.40
2018-09-28T04:32:28.234Z,5.30
2018-09-28T04:34:56.822Z,5.40
2018-09-28T04:37:25.398Z,5.40
2018-09-28T04:39:53.946Z,5.30
2018-09-28T04:42:22.584Z,5.20
2018-09-28T04:44:51.241Z,5.10
2018-09-28T04:47:19.946Z,5.10
2018-09-28T04:49:48.684Z,5.30
2018-09-28T04:52:17.271Z,5.30
2018-09-28T04:54:45.974Z,5.20
2018-09-28T04:57:14.819Z,5.10
2018-09-28T04:59:43.448Z,4.90
2018-09-28T05:02:12.118Z,5.00
2018-09-28T05:04:40.694Z,4.90
2018-09-28T05:07:09.363Z,5.10
2018-09-28T05:09:38.035Z,5.00
2018-09-28T05:12:06.695Z,5.00
2018-09-28T05:14:35.426Z,4.90
2018-09-28T05:17:04.094Z,5.00
2018-09-28T05:19:32.713Z,5.20
2018-09-28T05:22:01.420Z,5.00
2018-09-28T05:24:30.074Z,5.00
2018-09-28T05:26:58.741Z,5.00
2018-09-28T05:29:27.359Z,4.90
2018-09-28T05:31:56.176Z,5.00
2018-09-28T05:34:24.642Z,5.00
2018-09-28T05:36:53.317Z,5.00
2018-09-28T05:39:21.928Z,5.10
2018-09-28T05:41:50.634Z,5.10
2018-09-28T05:44:19.467Z,5.10
2018-09-28T05:46:48.131Z,5.00
2018-09-28T05:49:16.843Z,4.90
2018-09-28T05:51:45.527Z,4.80
2018-09-28T05:54:14.261Z,4.90
2018-09-28T05:56:42.846Z,5.00
2018-09-28T05:59:16.851Z,5.00
2018-09-28T06:01:50.668Z,4.90
2018-09-28T06:04:24.630Z,5.10
2018-09-28T06:06:53.291Z,5.40
2018-09-28T06:09:21.989Z,5.70
2018-09-28T06:11:50.673Z,5.90
2018-09-28T06:14:19.402Z,6.30
2018-09-28T06:16:47.979Z,6.70
2018-09-28T06:19:16.595Z,6.60
2018-09-28T06:21:45.216Z,6.70
2018-09-28T06:24:13.863Z,7.10
2018-09-28T06:26:42.434Z,7.00
2018-09-28T06:29:11.249Z,7.20
2018-09-28T06:31:40.034Z,7.70
2018-09-28T06:34:08.789Z,7.70
2018-09-28T06:36:37.514Z,7.60
2018-09-28T06:39:06.833Z,7.70
2018-09-28T06:41:35.530Z,7.80
2018-09-28T06:44:04.217Z,7.90
2018-09-28T06:46:32.828Z,8.00
2018-09-28T06:49:01.472Z,8.60
2018-09-28T06:51:30.287Z,9.10
2018-09-28T06:53:58.890Z,9.10
2018-09-28T06:56:27.494Z,9.30
2018-09-28T06:58:56.263Z,9.50
2018-09-28T07:01:24.890Z,9.40
2018-09-28T07:03:53.542Z,9.60
2018-09-28T07:06:22.132Z,9.80
2018-09-28T07:08:50.701Z,9.90
2018-09-28T07:11:19.406Z,10.00
2018-09-28T07:13:48.043Z,10.10
2018-09-28T07:16:16.786Z,10.30
2018-09-28T07:18:45.346Z,10.70
2018-09-28T07:21:14.018Z,10.80
2018-09-28T07:23:42.812Z,11.10
2018-09-28T07:26:11.543Z,11.40
2018-09-28T07:28:40.135Z,11.60
2018-09-28T07:31:08.845Z,11.90
2018-09-28T07:33:37.436Z,12.10
2018-09-28T07:36:06.128Z,12.40
2018-09-28T07:38:34.717Z,12.70
2018-09-28T07:41:03.371Z,13.00
2018-09-28T07:43:31.982Z,13.30
2018-09-28T07:46:00.676Z,13.40
2018-09-28T07:48:29.294Z,13.70
2018-09-28T07:50:57.886Z,13.80
2018-09-28T07:53:26.649Z,14.00
2018-09-28T07:55:55.369Z,14.20
2018-09-28T07:58:24.288Z,14.30
2018-09-28T08:00:52.967Z,14.60
2018-09-28T08:03:28.941Z,14.60
2018-09-28T08:05:59.142Z,14.90
2018-09-28T08:08:27.899Z,15.10
2018-09-28T08:10:56.583Z,15.40
2018-09-28T08:13:25.268Z,15.60
2018-09-28T08:15:53.880Z,15.90
2018-09-28T08:18:23.110Z,16.10
2018-09-28T08:20:52.074Z,16.20
2018-09-28T08:23:20.805Z,16.30
2018-09-28T08:25:49.425Z,16.40
2018-09-28T08:28:17.975Z,16.80
2018-09-28T08:30:46.615Z,16.80
2018-09-28T08:33:15.228Z,17.00
2018-09-28T08:35:43.874Z,17.00
2018-09-28T08:38:12.474Z,17.30
2018-09-28T08:40:41.062Z,17.50
2018-09-28T08:43:09.644Z,17.90
2018-09-28T08:45:38.304Z,18.10
2018-09-28T08:48:07.414Z,18.30
2018-09-28T08:50:36.144Z,18.40
2018-09-28T08:53:04.831Z,18.60
2018-09-28T08:55:33.532Z,18.70
2018-09-28T08:58:02.111Z,18.70
2018-09-28T09:00:30.715Z,18.80
2018-09-28T09:02:59.291Z,18.90
2018-09-28T09:05:27.886Z,19.10
2018-09-28T09:07:56.423Z,19.30
2018-09-28T09:10:25.054Z,19.30
2018-09-28T09:12:53.604Z,19.70
2018-09-28T09:15:22.228Z,20.00
2018-09-28T09:17:50.822Z,20.10
2018-09-28T09:20:19.431Z,20.00
2018-09-28T09:22:47.977Z,20.00
2018-09-28T09:25:16.575Z,20.20
2018-09-28T09:27:45.243Z,20.30
2018-09-28T09:30:13.874Z,20.50
2018-09-28T09:32:42.478Z,20.80
2018-09-28T09:35:11.074Z,20.70
2018-09-28T09:37:39.663Z,20.70
2018-09-28T09:40:08.270Z,19.90
2018-09-28T09:42:36.933Z,19.90
2018-09-28T09:45:05.547Z,20.20
2018-09-28T09:47:34.128Z,20.40
2018-09-28T09:50:02.710Z,20.10
2018-09-28T09:52:31.334Z,20.60
2018-09-28T09:54:59.961Z,21.10
2018-09-28T09:57:28.549Z,21.50
2018-09-28T09:59:57.220Z,21.50
2018-09-28T10:02:31.066Z,21.60
2018-09-28T10:04:59.670Z,21.40
2018-09-28T10:07:28.276Z,20.40
2018-09-28T10:09:56.886Z,21.10
2018-09-28T10:12:25.652Z,21.30
2018-09-28T10:14:54.160Z,21.40
2018-09-28T10:17:22.821Z,22.00
2018-09-28T10:19:51.418Z,22.00
2018-09-28T10:22:20.097Z,21.50
2018-09-28T10:24:48.731Z,21.50
2018-09-28T10:27:17.348Z,21.80
2018-09-28T10:29:45.977Z,22.20
2018-09-28T10:32:14.703Z,22.50
2018-09-28T10:34:43.371Z,22.40
2018-09-28T10:37:12.039Z,22.40
2018-09-28T10:39:40.721Z,22.50
2018-09-28T10:42:09.305Z,22.10
2018-09-28T10:44:37.911Z,22.20
2018-09-28T10:47:06.559Z,22.40
2018-09-28T10:49:35.199Z,22.70
2018-09-28T10:52:03.951Z,23.00
2018-09-28T10:54:32.440Z,23.00
2018-09-28T10:57:01.127Z,22.40
2018-09-28T10:59:29.859Z,22.40
2018-09-28T11:01:58.502Z,23.00
2018-09-28T11:04:27.205Z,22.60
2018-09-28T11:06:55.808Z,21.50
2018-09-28T11:09:24.520Z,22.00
2018-09-28T11:11:53.011Z,21.90
2018-09-28T11:14:21.582Z,21.80
2018-09-28T11:16:50.170Z,22.10
2018-09-28T11:19:18.799Z,22.20
2018-09-28T11:21:47.416Z,21.90
2018-09-28T11:24:16.034Z,21.80
2018-09-28T11:26:44.620Z,21.80
2018-09-28T11:29:13.204Z,22.30
2018-09-28T11:31:41.767Z,22.70
2018-09-28T11:34:10.368Z,23.20
2018-09-28T11:36:38.963Z,23.30
2018-09-28T11:39:07.940Z,23.10
2018-09-28T11:41:36.553Z,23.10
2018-09-28T11:44:05.156Z,23.20
2018-09-28T11:46:33.766Z,23.50
2018-09-28T11:49:02.390Z,23.30
2018-09-28T11:51:31.110Z,23.40
2018-09-28T11:53:59.721Z,23.40
2018-09-28T11:56:28.324Z,23.80
2018-09-28T11:58:56.914Z,21.90
2018-09-28T12:01:25.536Z,22.40
2018-09-28T12:03:54.284Z,21.70
2018-09-28T12:06:22.902Z,21.80
2018-09-28T12:08:51.426Z,21.70
2018-09-28T12:11:20.036Z,21.90
2018-09-28T12:13:48.623Z,22.00
2018-09-28T12:16:17.215Z,22.40
2018-09-28T12:18:45.831Z,22.10
2018-09-28T12:21:14.463Z,22.10
2018-09-28T12:23:42.983Z,21.90
2018-09-28T12:26:11.608Z,22.10
2018-09-28T12:28:40.241Z,22.50
2018-09-28T12:31:15.160Z,22.60
2018-09-28T12:33:43.801Z,21.60
2018-09-28T12:36:12.359Z,22.20
2018-09-28T12:38:40.938Z,22.30
2018-09-28T12:41:09.531Z,22.70
2018-09-28T12:43:38.199Z,22.80
2018-09-28T12:46:06.903Z,22.80
2018-09-28T12:48:35.544Z,23.10
2018-09-28T12:51:04.225Z,23.10
2018-09-28T12:53:32.846Z,22.80
2018-09-28T12:56:01.487Z,23.20
2018-09-28T12:58:30.082Z,23.40
2018-09-28T13:00:58.805Z,23.30
2018-09-28T13:03:27.401Z,23.70
2018-09-28T13:05:55.994Z,23.40
2018-09-28T13:08:24.650Z,23.30
2018-09-28T13:10:53.147Z,23.30
2018-09-28T13:13:21.876Z,23.20
2018-09-28T13:15:55.962Z,23.00
2018-09-28T13:18:24.586Z,22.40
2018-09-28T13:20:53.132Z,22.40
2018-09-28T13:23:21.788Z,22.60
2018-09-28T13:25:50.359Z,22.90
2018-09-28T13:28:18.923Z,22.60
2018-09-28T13:30:47.541Z,22.40
2018-09-28T13:33:16.089Z,21.90
2018-09-28T13:35:44.630Z,22.20
2018-09-28T13:38:13.290Z,22.50
2018-09-28T13:40:42.229Z,22.10
2018-09-28T13:43:10.798Z,22.00
2018-09-28T13:45:39.386Z,21.60
2018-09-28T13:48:08.160Z,21.50
2018-09-28T13:50:36.794Z,21.40
2018-09-28T13:53:05.419Z,21.50
2018-09-28T13:55:34.002Z,21.50
2018-09-28T13:58:02.631Z,21.60
2018-09-28T14:00:31.225Z,21.30
2018-09-28T14:02:59.863Z,20.60
2018-09-28T14:05:28.586Z,21.40
2018-09-28T14:07:57.158Z,20.90
2018-09-28T14:10:25.813Z,21.00
2018-09-28T14:12:54.393Z,21.00
2018-09-28T14:15:23.120Z,21.00
2018-09-28T14:17:52.017Z,21.10
2018-09-28T14:20:20.802Z,20.80
2018-09-28T14:22:49.520Z,20.80
2018-09-28T14:25:18.160Z,20.60
2018-09-28T14:27:46.775Z,20.40
2018-09-28T14:30:15.490Z,20.20
2018-09-28T14:32:44.152Z,20.10
2018-09-28T14:35:12.785Z,20.00
2018-09-28T14:37:41.526Z,20.20
2018-09-28T14:40:10.436Z,20.10
2018-09-28T14:42:39.703Z,20.30
2018-09-28T14:45:08.648Z,19.90
2018-09-28T14:47:37.293Z,19.90
2018-09-28T14:50:06.055Z,20.30
2018-09-28T14:52:34.678Z,20.10
2018-09-28T14:55:03.304Z,20.20
2018-09-28T14:57:31.946Z,20.20
2018-09-28T15:00:00.672Z,20.20
2018-09-28T15:02:29.385Z,20.20
2018-09-28T15:04:58.092Z,20.10
2018-09-28T15:07:26.766Z,19.80
2018-09-28T15:09:55.392Z,19.70
2018-09-28T15:12:24.074Z,19.30
2018-09-28T15:14:52.803Z,19.00
2018-09-28T15:17:21.419Z,19.10
2018-09-28T15:19:50.045Z,19.00
2018-09-28T15:22:18.677Z,18.60
2018-09-28T15:24:47.268Z,18.40
2018-09-28T15:27:15.877Z,18.20
2018-09-28T15:29:44.562Z,18.10
2018-09-28T15:32:13.214Z,17.80
2018-09-28T15:34:41.833Z,17.80
2018-09-28T15:37:10.470Z,17.60
2018-09-28T15:39:39.147Z,17.50
2018-09-28T15:42:07.976Z,17.40
2018-09-28T15:44:36.614Z,17.40
2018-09-28T15:47:05.273Z,17.20
2018-09-28T15:49:33.900Z,17.30
2018-09-28T15:52:02.561Z,17.20
2018-09-28T15:54:31.131Z,17.20
2018-09-28T15:56:59.744Z,17.30
2018-09-28T15:59:28.414Z,17.00
2018-09-28T16:01:57.006Z,16.80
2018-09-28T16:04:25.594Z,16.50
2018-09-28T16:06:54.167Z,16.20
2018-09-28T16:09:23.324Z,16.30
2018-09-28T16:11:52.023Z,16.20
2018-09-28T16:14:20.662Z,16.50
2018-09-28T16:16:49.491Z,16.40
2018-09-28T16:19:18.092Z,16.10
2018-09-28T16:21:46.783Z,16.30
2018-09-28T16:24:15.378Z,15.90
2018-09-28T16:26:43.926Z,15.80
2018-09-28T16:29:12.525Z,15.90
2018-09-28T16:31:41.080Z,15.80
2018-09-28T16:34:09.697Z,15.70
2018-09-28T16:36:38.267Z,15.80
2018-09-28T16:39:08.335Z,15.90
2018-09-28T16:41:36.955Z,15.60
2018-09-28T16:44:05.640Z,15.50
2018-09-28T16:46:34.682Z,15.50
2018-09-28T16:49:03.698Z,15.50
2018-09-28T16:51:32.356Z,15.40
2018-09-28T16:54:01.115Z,15.40
2018-09-28T16:56:29.647Z,15.10
2018-09-28T16:58:58.344Z,15.30
2018-09-28T17:01:27.136Z,15.40
2018-09-28T17:03:55.777Z,15.30
2018-09-28T17:06:24.389Z,15.20
2018-09-28T17:08:53.170Z,15.10
2018-09-28T17:11:21.880Z,15.00
2018-09-28T17:13:50.521Z,15.00
2018-09-28T17:16:19.133Z,15.00
2018-09-28T17:18:47.761Z,15.20
2018-09-28T17:21:16.379Z,15.10
2018-09-28T17:23:44.933Z,15.10
2018-09-28T17:26:13.643Z,15.10
2018-09-28T17:28:43.246Z,15.00
2018-09-28T17:31:11.792Z,14.90
2018-09-28T17:33:43.053Z,14.80
2018-09-28T17:36:12.482Z,14.70
2018-09-28T17:38:42.027Z,14.60
2018-09-28T17:41:10.735Z,14.70
2018-09-28T17:43:39.282Z,14.60
2018-09-28T17:46:07.847Z,14.70
2018-09-28T17:48:36.542Z,14.70
2018-09-28T17:51:05.226Z,14.70
2018-09-28T17:53:33.898Z,14.60
2018-09-28T17:56:02.505Z,14.50
2018-09-28T17:58:31.046Z,14.40
2018-09-28T18:00:59.935Z,14.30
2018-09-28T18:03:28.573Z,14.20
2018-09-28T18:05:57.224Z,14.30
2018-09-28T18:08:26.186Z,14.30
2018-09-28T18:10:54.856Z,14.30
2018-09-28T18:13:23.462Z,14.50
2018-09-28T18:15:52.062Z,14.40
2018-09-28T18:18:20.703Z,14.30
2018-09-28T18:20:49.478Z,14.20
2018-09-28T18:23:18.169Z,14.30
2018-09-28T18:25:46.759Z,14.40
2018-09-28T18:28:15.435Z,14.30
2018-09-28T18:30:44.015Z,14.40
2018-09-28T18:33:12.602Z,14.40
2018-09-28T18:35:41.262Z,14.50
2018-09-28T18:38:09.967Z,14.40
2018-09-28T18:40:38.594Z,14.10
2018-09-28T18:43:07.355Z,14.20
2018-09-28T18:45:36.159Z,14.30
2018-09-28T18:48:04.759Z,14.30
2018-09-28T18:50:33.628Z,14.10
2018-09-28T18:53:02.295Z,13.90
2018-09-28T18:55:30.890Z,13.90
2018-09-28T18:57:59.458Z,13.80
2018-09-28T19:00:28.062Z,13.80
2018-09-28T19:02:56.658Z,13.80
2018-09-28T19:05:25.249Z,13.90
2018-09-28T19:07:54.011Z,13.80
2018-09-28T19:10:22.655Z,13.80
2018-09-28T19:12:51.417Z,13.80
2018-09-28T19:15:19.980Z,13.70
2018-09-28T19:17:48.565Z,13.60
2018-09-28T19:20:18.340Z,13.60
2018-09-28T19:22:46.975Z,13.60
2018-09-28T19:25:15.558Z,13.70
2018-09-28T19:27:44.321Z,13.70
2018-09-28T19:30:12.899Z,13.70
2018-09-28T19:32:41.541Z,13.70
2018-09-28T19:35:10.147Z,13.70
2018-09-28T19:37:38.971Z,13.60
2018-09-28T19:40:07.676Z,13.60
2018-09-28T19:42:36.265Z,13.60
2018-09-28T19:45:05.106Z,13.60
2018-09-28T19:47:33.667Z,13.50
2018-09-28T19:50:02.332Z,13.60
2018-09-28T19:52:30.854Z,13.60
2018-09-28T19:54:59.578Z,13.50
2018-09-28T19:57:28.126Z,13.50
2018-09-28T19:59:56.654Z,13.50
2018-09-28T20:02:25.266Z,13.40
2018-09-28T20:04:53.843Z,13.40
2018-09-28T20:07:22.450Z,13.50
2018-09-28T20:09:50.995Z,13.40
2018-09-28T20:12:19.558Z,13.50
2018-09-28T20:14:48.166Z,13.60
2018-09-28T20:17:16.712Z,13.40
2018-09-28T20:19:45.254Z,13.40
2018-09-28T20:22:14.494Z,13.30
2018-09-28T20:24:43.152Z,13.30
2018-09-28T20:27:11.734Z,13.40
2018-09-28T20:29:40.317Z,13.50
2018-09-28T20:32:08.953Z,13.10
2018-09-28T20:34:37.575Z,13.20
2018-09-28T20:37:06.205Z,13.20
2018-09-28T20:39:34.798Z,13.00
2018-09-28T20:42:03.443Z,13.00
2018-09-28T20:44:31.991Z,13.10
2018-09-28T20:47:00.618Z,13.10
2018-09-28T20:49:29.178Z,13.00
2018-09-28T20:51:57.708Z,12.90
2018-09-28T20:54:26.245Z,12.90
2018-09-28T20:56:54.823Z,12.70
2018-09-28T20:59:23.414Z,12.60
2018-09-28T21:01:51.971Z,12.60
2018-09-28T21:04:20.607Z,12.50
2018-09-28T21:06:49.154Z,12.50
2018-09-28T21:09:17.741Z,12.60
2018-09-28T21:11:46.334Z,12.50
2018-09-28T21:14:14.902Z,12.50
2018-09-28T21:16:44.527Z,12.50
2018-09-28T21:19:13.147Z,12.30
2018-09-28T21:21:41.698Z,12.20
2018-09-28T21:24:10.267Z,12.10
2018-09-28T21:26:38.891Z,12.10
2018-09-28T21:29:07.722Z,12.10
2018-09-28T21:31:36.378Z,12.00
2018-09-28T21:34:04.952Z,12.10
2018-09-28T21:36:33.607Z,12.00
2018-09-28T21:39:02.180Z,11.80
2018-09-28T21:41:30.806Z,11.90
2018-09-28T21:43:59.474Z,11.80
2018-09-28T21:46:28.074Z,11.70
2018-09-28T21:48:56.659Z,11.60
2018-09-28T21:51:25.360Z,11.60
2018-09-28T21:53:54.002Z,11.60
2018-09-28T21:56:22.588Z,11.50
2018-09-28T21:58:51.334Z,11.50
2018-09-28T22:02:49.148Z,11.50
2018-09-28T22:05:17.826Z,11.60
2018-09-28T22:07:46.357Z,11.20
2018-09-28T22:10:14.906Z,11.10
2018-09-28T22:12:43.438Z,11.00
2018-09-28T22:15:12.121Z,10.80
2018-09-28T22:17:40.696Z,10.90
2018-09-28T22:20:09.274Z,11.00
2018-09-28T22:22:37.922Z,10.90
2018-09-28T22:25:06.514Z,10.60
2018-09-28T22:27:35.126Z,10.60
2018-09-28T22:30:03.720Z,10.60
2018-09-28T22:32:32.331Z,10.30
2018-09-28T22:35:01.002Z,10.00
2018-09-28T22:37:29.519Z,10.10
2018-09-28T22:39:58.107Z,9.80
2018-09-28T22:42:26.650Z,9.80
2018-09-28T22:44:55.175Z,10.00
2018-09-28T22:47:23.762Z,10.00
2018-09-28T22:49:52.272Z,9.90
2018-09-28T22:52:21.012Z,9.80
2018-09-28T22:54:49.663Z,9.70
2018-09-28T22:57:18.330Z,9.80
2018-09-28T22:59:46.863Z,9.80
2018-09-28T23:02:15.476Z,9.70
2018-09-28T23:04:44.095Z,9.70
2018-09-28T23:07:12.614Z,9.70
2018-09-28T23:09:41.170Z,9.70
2018-09-28T23:12:09.719Z,9.60
2018-09-28T23:14:38.257Z,9.50
2018-09-28T23:17:07.346Z,9.40
2018-09-28T23:19:36.103Z,9.40
2018-09-28T23:22:04.650Z,9.40
2018-09-28T23:24:33.177Z,9.40
2018-09-28T23:27:01.711Z,9.30
2018-09-28T23:29:30.231Z,9.30
2018-09-28T23:31:58.910Z,9.20
2018-09-28T23:34:27.474Z,9.20
2018-09-28T23:36:56.028Z,9.30
2018-09-28T23:39:24.543Z,9.30
2018-09-28T23:41:53.110Z,9.30
2018-09-28T23:44:21.673Z,9.20
2018-09-28T23:46:50.223Z,9.00
2018-09-28T23:49:18.850Z,9.10
2018-09-28T23:51:47.355Z,9.00
2018-09-28T23:54:15.892Z,9.00
2018-09-28T23:56:44.419Z,8.90
2018-09-28T23:59:12.971Z,8.80
